Terlton, Oklahoma
Current Conditions -  °F | °C
As of 9:15 PM on Wednesday 22 Oct 2014 (Local Time) from KOWP Reporting Station
Clear Clear  
Wind Chill: 70°   Ceiling: Unl
Heat Index: 70°   Visibility: 10mi
Dew Point: 57°   Wind: 8mph
Humidity: 63%   Direction: 150°SSE
Pressure: 30.11"   Gusts: NA
Location:  36.19°N, 96.49°W
Report Text: KOWP 230215Z AUTO 15007KT 10SM CLR 21/14 A3011 RMK AO2 T02120138
Loading
Personal Weather Stations






























Interactive Weather Map
Tropical Storm Tracking
New forecast layout! Learn more

10-Day Weather Forecast

Advertisements
Track Severe Weather on mobile